AirNav   ATP
 
 1654 users online  

80OI Brentwood Ambulatory Care Center Heliport
Northfield, Ohio, USA

GOING TO NORTHFIELD?


FAA INFORMATION EFFECTIVE 20 JULY 2017

Location

FAA Identifier: 80OI
Lat/Long: 41-18-58.6700N / 081-34-07.8800W
41-18.977833N / 081-34.131333W
41.3162972 / -81.5688556
(estimated)
Elevation: 868 ft. / 265 m (estimated)
Variation: 06W (1985)
From city: 2 miles E of NORTHFIELD, OH
Time zone: UTC -4 (UTC -5 during Standard Time)
Zip code: 44067

Heliport Operations

Heliport use: Private use, MEDICAL USE.
Activation date: 07/1987
Control tower: no
ARTCC: CLEVELAND CENTER
FSS: CLEVELAND FLIGHT SERVICE STATION
Attendance: CONTINUOUS
Wind indicator: yes
Segmented circle: yes

Heliport Communications

WX ASOS at BKL (13 nm NW): 125.25 (216-241-6904)
WX ASOS at CLE (14 nm NW): PHONE 216-267-9955
WX AWOS-3 at POV (16 nm SE): 118.675 (330-298-9353)
WX ASOS at AKR (17 nm S): 126.825 (330-724-4237)

Nearby radio navigation aids

VOR radial/distance  VOR name  Freq  Var
ACOr311/20.8AKRON VOR/DME114.4004W
CXRr242/21.9CHARDON VOR/DME112.7005W
DJBr100/26.8DRYER VOR/DME113.6005W
BSVr354/35.1BRIGGS VOR/DME112.4004W

 
NDB name  Hdg/Dist  Freq  Var  ID
LAKELAND209/23.626308WLQL .-.. --.- .-..

Heliport Services

Runway Information

Helipad H1

Dimensions: 60 x 60 ft. / 18 x 18 m
Surface: asphalt
Latitude: 41-18.977833N
Longitude: 081-34.131333W
Elevation: 868.0 ft.
Traffic pattern: leftleft

Heliport Ownership and Management from official FAA records

Ownership: Privately-owned
Owner: BRENTWOOD HOSPITAL
4110 WARRENSVILLE CENTER RD
WARRENSVILLE HTS, OH 44122
Phone 216-283-2900
Manager: FRANK KELEMAN
4110 WARRENSVILLE CENTER RD
WARRENSVILLE HTS, OH 44122
Phone 216-283-2900

Additional Remarks

A52-H1 +80' HI TENSION TWRS 1000' E.

Instrument Procedures

There are no published instrument procedures at 80OI.

Some nearby airports with instrument procedures:

1G3 - Kent State University Airport (12 nm SE)
KBKL - Burke Lakefront Airport (13 nm NW)
KCLE - Cleveland-Hopkins International Airport (14 nm NW)
1G5 - Medina Municipal Airport (14 nm SW)
KCGF - Cuyahoga County Airport (15 nm N)
KPOV - Portage County Airport (16 nm SE)
KAKR - Akron Fulton International Airport (17 nm S)
 
Loc | Ops | Rwys | IFR | FBO | Links
Com | Nav | Svcs | Stats | Notes

City of Findlay
 
Area around 80OI (Brentwood Ambulatory Care Center Heliport)
 
Road maps at: MapQuest Bing Google
 
Aerial photo
No photo
 
Sectional chart

 
Airport distance calculator
Flying to Brentwood Ambulatory Care Center Heliport? Find the distance to fly.

From to 80OI

Sunrise and sunset
Times for 25-Jul-2017
 Local
(UTC-4)
 Zulu
(UTC)
Morning civil twilight05:4409:44
Sunrise06:1610:16
Sunset20:5000:50
Evening civil twilight21:2201:22

Current date and time
Zulu (UTC)  25-Jul-2017 20:12:44
Local (UTC-4)  25-Jul-2017 16:12:44
 
METAR
KBKL 
14nm N 
251953Z 01010KT 10SM CLR 23/15 A3021 RMK AO2 SLP227 T02280150
KCLE 
14nm NW 
251951Z 34008KT 10SM SCT030 BKN150 24/16 A3023 RMK AO2 SLP233 T02440161
KPOV 
16nm SE 
251955Z AUTO 02004KT 10SM SCT039 24/14 A3022 RMK AO2 T02380135
KCGF 
16nm N 
251945Z 01010KT 10SM SCT035 SCT200 23/16 A3022
KAKR 
18nm S 
251954Z AUTO 00000KT 10SM FEW042 25/13 A3020 RMK AO2 SLP221 T02500133 TSNO
KLNN 
23nm NE 
251955Z AUTO 02008KT 10SM CLR 21/15 A3022 RMK AO1 T02100147
KCAK 
25nm S 
251951Z VRB06KT 10SM SCT036 SCT250 25/14 A3021 RMK AO2 SLP222 T02500144
TAF
KCLE 
14nm NW 
251517Z 2515/2618 35008KT P6SM SCT025 OVC035 FM252000 01010KT P6SM SCT040 FM260200 08006KT P6SM SCT035 FM260900 14004KT P6SM SCT250 FM261500 20008KT P6SM SCT250
NOTAMs
Click for the latest NOTAMs
NOTAMs are issued by the DoD/FAA and will open in a separate window not controlled by AirNav.

 

 
 

Would you like to see your business listed on this page?

 If your business provides an interesting product or service to pilots, flight crews, aircraft, or users of the Brentwood Ambulatory Care Center Heliport, you should consider listing it here.  To start the listing process, click on the button below
 
Add a business
 

Other Pages about Brentwood Ambulatory Care Center Heliport

Update a link
 
Copyright © AirNav, LLC. All rights reserved. Privacy Policy  Contact